Terminal Aerodrome Forecast
Issued by NWS Corpus Christi, TX

Home | Current Version | Previous Version | Text Only | Print | Product List | Glossary On
Versions: 1 2 3 4 5 6 7 8 9 10 11 12 13 14
000
FTUS44 KCRP 280530
TAFCRP
TAF
KCRP 280530Z 2806/2906 16008KT P6SM SCT025 BKN150
     FM281500 17012KT P6SM VCSH SCT030 BKN250
     FM281900 14015G22KT P6SM VCTS SCT045CB BKN250
     FM290000 14010KT P6SM SCT035=

USA.gov is the U.S. government's official web portal to all federal, state and local government web resources and services.